Meredithville, Virginia
Current Conditions -  °F | °C
As of 10:15 PM on Saturday 20 Dec 2014 (Local Time) from KLVL Reporting Station
Broken Clouds Broken Clouds  
Wind Chill: 32°   Ceiling: 7500
Heat Index: 32°   Visibility: 10mi
Dew Point: 29°   Wind: 0mph
Humidity: 89%   Direction: NA
Pressure: 30.28"   Gusts: NA
Location:  36.81°N, 77.96°W
Report Text: KLVL 210315Z AUTO 00000KT 10SM BKN075 00/M01 A3028 RMK AO1 T00011015
Loading
Personal Weather Stations






























Interactive Weather Map New forecast layout! Learn more

10-Day Weather Forecast

Advertisements
Track Severe Weather on mobile